createdAt,value
2022-12-16T00:02:09.789Z,60.00
2022-12-16T00:04:43.215Z,55.37
2022-12-16T00:07:12.584Z,59.40
2022-12-16T00:09:40.902Z,55.63
2022-12-16T00:12:09.513Z,55.97
2022-12-16T00:14:37.922Z,52.87
2022-12-16T00:17:06.739Z,53.33
2022-12-16T00:19:41.362Z,55.40
2022-12-16T00:22:08.918Z,60.07
2022-12-16T00:24:36.713Z,54.47
2022-12-16T00:27:06.200Z,51.87
2022-12-16T00:29:37.129Z,51.47
2022-12-16T00:32:06.481Z,53.87
2022-12-16T00:34:37.008Z,50.53
2022-12-16T00:37:06.888Z,46.23
2022-12-16T00:39:35.864Z,47.53
2022-12-16T00:42:06.176Z,43.77
2022-12-16T00:44:36.568Z,43.03
2022-12-16T00:47:07.357Z,40.37
2022-12-16T00:49:39.374Z,39.00
2022-12-16T00:52:07.523Z,37.70
2022-12-16T00:54:36.913Z,36.53
2022-12-16T00:57:05.757Z,36.93
2022-12-16T00:59:35.632Z,34.30
2022-12-16T01:02:03.272Z,33.27
2022-12-16T01:04:33.133Z,31.87
2022-12-16T01:07:05.651Z,32.93
2022-12-16T01:15:12.856Z,31.83
2022-12-16T01:17:42.135Z,28.40
2022-12-16T01:20:11.396Z,28.43
2022-12-16T01:22:39.892Z,27.83
2022-12-16T01:25:12.870Z,27.60
2022-12-16T01:27:45.261Z,28.10
2022-12-16T01:30:16.012Z,26.83
2022-12-16T01:32:43.741Z,25.60
2022-12-16T01:35:43.960Z,27.73
2022-12-16T01:38:03.222Z,28.80
2022-12-16T01:40:33.263Z,29.20
2022-12-16T01:43:03.172Z,25.60
2022-12-16T01:45:39.802Z,25.53
2022-12-16T01:48:36.757Z,24.53
2022-12-16T01:51:12.969Z,25.93
2022-12-16T01:53:46.508Z,22.50
2022-12-16T01:56:17.781Z,22.77
2022-12-16T01:58:45.893Z,22.73
2022-12-16T02:01:15.899Z,20.07
2022-12-16T02:03:49.131Z,22.70
2022-12-16T02:06:20.037Z,20.10
2022-12-16T02:08:55.562Z,20.53
2022-12-16T02:12:13.919Z,18.80
2022-12-16T02:15:25.193Z,19.33
2022-12-16T02:18:57.988Z,19.53
2022-12-16T02:21:27.935Z,19.83
2022-12-16T02:24:25.875Z,18.80
2022-12-16T02:27:33.589Z,19.77
2022-12-16T02:30:25.679Z,19.60
2022-12-16T02:33:01.678Z,21.37
2022-12-16T02:35:47.671Z,19.50
2022-12-16T02:38:27.801Z,23.70
2022-12-16T02:41:05.304Z,22.40
2022-12-16T02:44:23.532Z,26.13
2022-12-16T02:46:55.976Z,23.93
2022-12-16T02:49:24.316Z,24.73
2022-12-16T02:51:52.181Z,25.87
2022-12-16T02:54:23.375Z,26.40
2022-12-16T02:57:09.447Z,27.97
2022-12-16T03:00:02.707Z,24.77
2022-12-16T03:02:47.439Z,24.17
2022-12-16T03:05:48.160Z,24.93
2022-12-16T03:08:43.343Z,23.43
2022-12-16T03:11:23.744Z,22.73
2022-12-16T03:13:58.374Z,22.60
2022-12-16T03:16:34.598Z,23.10
2022-12-16T03:19:10.494Z,20.93
2022-12-16T03:22:00.007Z,24.37
2022-12-16T03:24:33.884Z,24.30
2022-12-16T03:27:35.884Z,22.23
2022-12-16T03:30:16.155Z,24.97
2022-12-16T03:33:33.251Z,24.17
2022-12-16T03:36:14.504Z,23.83
2022-12-16T03:38:47.932Z,23.23
2022-12-16T03:41:18.586Z,23.53
2022-12-16T03:43:50.620Z,22.33
2022-12-16T03:46:19.171Z,19.70
2022-12-16T03:48:55.086Z,16.37
2022-12-16T03:51:24.451Z,14.67
2022-12-16T03:53:56.279Z,13.73
2022-12-16T03:56:25.031Z,12.53
2022-12-16T03:58:53.533Z,12.37
2022-12-16T04:01:23.790Z,11.37
2022-12-16T04:03:53.859Z,11.17
2022-12-16T04:06:24.901Z,12.33
2022-12-16T04:08:53.782Z,11.43
2022-12-16T04:11:41.915Z,11.63
2022-12-16T04:14:30.619Z,12.30
2022-12-16T04:17:17.969Z,10.60
2022-12-16T04:20:06.108Z,9.80
2022-12-16T04:23:00.687Z,9.67
2022-12-16T04:25:37.016Z,9.93
2022-12-16T04:28:05.499Z,9.17
2022-12-16T04:30:38.369Z,9.10
2022-12-16T04:33:33.924Z,9.07
2022-12-16T04:36:22.864Z,9.30
2022-12-16T04:39:14.992Z,9.47
2022-12-16T04:42:03.924Z,9.87
2022-12-16T04:44:55.545Z,9.17
2022-12-16T04:47:44.480Z,8.67
2022-12-16T04:50:33.128Z,9.27
2022-12-16T04:53:21.086Z,9.37
2022-12-16T04:56:09.876Z,9.30
2022-12-16T04:58:56.202Z,8.97
2022-12-16T05:01:42.826Z,9.17
2022-12-16T05:04:34.337Z,9.57
2022-12-16T05:07:23.867Z,9.57
2022-12-16T05:10:25.638Z,9.70
2022-12-16T05:13:13.860Z,9.80
2022-12-16T05:16:03.297Z,9.10
2022-12-16T05:18:53.961Z,9.87
2022-12-16T05:21:41.032Z,10.70
2022-12-16T05:24:26.905Z,10.20
2022-12-16T05:27:18.275Z,9.57
2022-12-16T05:30:07.004Z,10.60
2022-12-16T05:32:55.668Z,10.10
2022-12-16T05:35:45.312Z,10.97
2022-12-16T05:38:37.473Z,11.13
2022-12-16T05:41:24.890Z,11.60
2022-12-16T05:44:16.096Z,12.33
2022-12-16T05:47:05.225Z,12.17
2022-12-16T05:49:56.008Z,11.57
2022-12-16T05:52:44.946Z,12.33
2022-12-16T05:55:34.349Z,12.43
2022-12-16T05:58:26.128Z,12.13
2022-12-16T06:01:14.078Z,11.57
2022-12-16T06:04:03.492Z,11.73
2022-12-16T06:06:51.913Z,12.00
2022-12-16T06:09:41.084Z,12.93
2022-12-16T06:12:27.850Z,13.80
2022-12-16T06:15:18.469Z,12.57
2022-12-16T06:18:09.900Z,13.60
2022-12-16T06:20:58.968Z,13.67
2022-12-16T06:23:45.854Z,14.37
2022-12-16T06:26:34.075Z,15.10
2022-12-16T06:29:20.909Z,13.47
2022-12-16T06:32:09.624Z,13.60
2022-12-16T06:34:55.971Z,14.20
2022-12-16T06:37:44.268Z,13.00
2022-12-16T06:40:32.905Z,15.00
2022-12-16T06:43:23.140Z,13.70
2022-12-16T06:46:09.889Z,13.33
2022-12-16T06:48:56.885Z,12.87
2022-12-16T06:51:43.849Z,12.30
2022-12-16T06:54:31.824Z,12.47
2022-12-16T06:57:20.071Z,13.53
2022-12-16T07:00:06.842Z,12.53
2022-12-16T07:02:56.284Z,13.53
2022-12-16T07:05:43.862Z,15.47
2022-12-16T07:08:34.054Z,16.37
2022-12-16T07:11:23.184Z,15.57
2022-12-16T07:14:11.856Z,15.43
2022-12-16T07:16:58.953Z,16.87
2022-12-16T07:19:46.494Z,15.40
2022-12-16T07:22:36.385Z,16.73
2022-12-16T07:25:26.306Z,17.93
2022-12-16T07:28:15.846Z,18.70
2022-12-16T07:31:04.377Z,17.40
2022-12-16T07:33:54.147Z,17.60
2022-12-16T07:36:45.291Z,16.83
2022-12-16T07:39:33.063Z,15.80
2022-12-16T07:42:19.236Z,16.17
2022-12-16T07:45:10.457Z,15.03
2022-12-16T07:47:56.860Z,17.63
2022-12-16T07:50:42.685Z,20.60
2022-12-16T07:53:31.223Z,20.67
2022-12-16T07:56:17.620Z,17.80
2022-12-16T07:59:05.033Z,21.10
2022-12-16T08:01:51.937Z,19.93
2022-12-16T08:04:42.860Z,20.07
2022-12-16T08:07:29.125Z,23.57
2022-12-16T08:10:17.898Z,30.00
2022-12-16T08:13:06.381Z,27.60
2022-12-16T08:15:56.075Z,35.53
2022-12-16T08:19:11.070Z,34.10
2022-12-16T08:22:00.176Z,27.67
2022-12-16T08:24:53.114Z,43.57
2022-12-16T08:27:40.219Z,31.47
2022-12-16T08:30:27.884Z,39.67
2022-12-16T08:33:19.607Z,33.80
2022-12-16T08:36:07.028Z,36.33
2022-12-16T08:38:58.053Z,32.00
2022-12-16T08:41:44.873Z,44.43
2022-12-16T08:44:35.340Z,50.03
2022-12-16T08:47:24.069Z,34.77
2022-12-16T08:50:10.929Z,21.43
2022-12-16T08:52:59.482Z,21.37
2022-12-16T08:55:47.453Z,22.83
2022-12-16T08:58:37.492Z,23.70
2022-12-16T09:01:26.266Z,21.77
2022-12-16T09:04:14.196Z,20.03
2022-12-16T09:07:01.833Z,23.20
2022-12-16T09:09:52.069Z,24.00
2022-12-16T09:12:39.823Z,23.27
2022-12-16T09:15:32.343Z,27.80
2022-12-16T09:18:18.832Z,26.37
2022-12-16T09:21:06.791Z,23.67
2022-12-16T09:23:56.122Z,26.27
2022-12-16T09:26:43.553Z,26.57
2022-12-16T09:29:33.625Z,28.70
2022-12-16T09:32:25.856Z,27.73
2022-12-16T09:35:13.794Z,30.40
2022-12-16T09:38:07.407Z,28.77
2022-12-16T09:40:53.848Z,30.37
2022-12-16T09:44:30.917Z,27.17
2022-12-16T09:47:40.812Z,27.00
2022-12-16T09:50:43.383Z,24.97
2022-12-16T09:53:40.104Z,22.20
2022-12-16T09:56:39.416Z,20.53
2022-12-16T09:59:43.128Z,18.63
2022-12-16T10:02:31.813Z,16.73
2022-12-16T10:05:19.822Z,21.57
2022-12-16T10:08:26.618Z,21.47
2022-12-16T10:11:25.399Z,15.53
2022-12-16T10:14:38.937Z,14.97
2022-12-16T10:17:44.055Z,15.27
2022-12-16T10:21:04.187Z,14.87
2022-12-16T10:24:21.814Z,14.57
2022-12-16T10:27:30.697Z,14.67
2022-12-16T10:30:18.022Z,14.70
2022-12-16T10:33:10.620Z,14.17
2022-12-16T10:36:06.011Z,14.87
2022-12-16T10:39:14.210Z,15.60
2022-12-16T10:42:06.027Z,15.50
2022-12-16T10:45:19.234Z,16.10
2022-12-16T10:48:06.784Z,16.53
2022-12-16T10:50:53.817Z,16.00
2022-12-16T10:53:50.852Z,17.33
2022-12-16T10:57:16.591Z,17.13
2022-12-16T11:00:06.855Z,17.20
2022-12-16T11:02:53.939Z,17.97
2022-12-16T11:05:43.808Z,17.27
2022-12-16T11:08:55.558Z,17.10
2022-12-16T11:11:50.849Z,16.93
2022-12-16T11:15:31.236Z,17.40
2022-12-16T11:18:24.532Z,18.40
2022-12-16T11:21:33.792Z,18.47
2022-12-16T11:24:40.856Z,17.33
2022-12-16T11:27:48.011Z,20.93
2022-12-16T11:30:42.345Z,17.37
2022-12-16T11:33:56.801Z,19.10
2022-12-16T11:36:47.852Z,19.33
2022-12-16T11:39:43.790Z,19.00
2022-12-16T11:42:48.490Z,19.10
2022-12-16T11:45:42.162Z,17.97
2022-12-16T11:48:48.830Z,19.37
2022-12-16T11:51:38.783Z,21.00
2022-12-16T11:54:53.361Z,18.93
2022-12-16T11:57:56.330Z,19.33
2022-12-16T12:00:44.789Z,19.63
2022-12-16T12:03:38.312Z,18.87
2022-12-16T12:06:58.756Z,18.90
2022-12-16T12:09:46.840Z,18.90
2022-12-16T12:13:07.358Z,19.27
2022-12-16T12:16:20.249Z,19.10
2022-12-16T12:19:24.278Z,18.90
2022-12-16T12:22:19.811Z,19.17
2022-12-16T12:25:33.376Z,20.20
2022-12-16T12:28:53.747Z,19.00
2022-12-16T12:32:07.754Z,21.20
2022-12-16T12:34:54.796Z,21.30
2022-12-16T12:38:07.566Z,19.57
2022-12-16T12:41:20.965Z,21.57
2022-12-16T12:45:02.916Z,20.23
2022-12-16T12:47:56.906Z,21.43
2022-12-16T12:50:58.137Z,21.30
2022-12-16T12:53:57.843Z,21.93
2022-12-16T12:57:11.857Z,20.27
2022-12-16T13:00:17.428Z,21.67
2022-12-16T13:03:18.893Z,24.17
2022-12-16T13:06:07.766Z,24.20
2022-12-16T13:09:04.589Z,23.17
2022-12-16T13:11:52.977Z,22.53
2022-12-16T13:14:54.045Z,22.53
2022-12-16T13:17:43.353Z,26.17
2022-12-16T13:20:57.690Z,23.50
2022-12-16T13:23:50.848Z,24.43
2022-12-16T13:26:45.100Z,23.53
2022-12-16T13:29:39.104Z,24.00
2022-12-16T13:32:29.783Z,24.87
2022-12-16T13:35:48.958Z,24.60
2022-12-16T13:38:41.760Z,38.47
2022-12-16T13:41:48.451Z,49.80
2022-12-16T13:45:02.856Z,32.07
2022-12-16T13:48:03.678Z,29.37
2022-12-16T13:51:07.768Z,36.37
2022-12-16T13:54:03.508Z,50.23
2022-12-16T13:57:08.181Z,43.20
2022-12-16T14:00:01.593Z,39.20
2022-12-16T14:03:00.129Z,34.17
2022-12-16T14:05:55.007Z,34.53
2022-12-16T14:08:55.754Z,31.03
2022-12-16T14:11:54.903Z,33.10
2022-12-16T14:15:17.294Z,33.87
2022-12-16T14:18:18.918Z,30.63
2022-12-16T14:21:18.774Z,33.97
2022-12-16T14:24:19.617Z,39.47
2022-12-16T14:27:09.774Z,41.60
2022-12-16T14:30:02.627Z,38.43
2022-12-16T14:32:53.758Z,40.43
2022-12-16T14:35:48.456Z,37.57
2022-12-16T14:38:49.764Z,35.43
2022-12-16T14:41:41.484Z,40.30
2022-12-16T14:44:43.777Z,40.90
2022-12-16T14:47:44.349Z,43.00
2022-12-16T14:50:59.752Z,40.10
2022-12-16T14:53:50.341Z,44.23
2022-12-16T14:56:42.770Z,41.20
2022-12-16T14:59:41.681Z,42.70
2022-12-16T15:02:40.945Z,43.17
2022-12-16T15:05:29.628Z,42.43
2022-12-16T15:08:18.805Z,41.87
2022-12-16T15:11:07.499Z,42.37
2022-12-16T15:14:00.238Z,42.90
2022-12-16T15:16:54.671Z,46.50
2022-12-16T15:19:44.749Z,50.23
2022-12-16T15:22:34.741Z,47.90
2022-12-16T15:25:25.399Z,57.13
2022-12-16T15:28:16.950Z,49.30
2022-12-16T15:31:11.080Z,50.00
2022-12-16T15:34:01.051Z,45.73
2022-12-16T15:36:54.977Z,48.37
2022-12-16T15:40:03.093Z,47.97
2022-12-16T15:42:55.099Z,45.20
2022-12-16T15:45:55.167Z,44.60
2022-12-16T15:48:49.764Z,46.00
2022-12-16T15:52:01.758Z,43.07
2022-12-16T15:54:50.615Z,42.60
2022-12-16T15:57:56.633Z,43.47
2022-12-16T16:00:51.510Z,44.07
2022-12-16T16:03:45.719Z,45.83
2022-12-16T16:06:41.447Z,47.33
2022-12-16T16:09:37.838Z,45.97
2022-12-16T16:12:27.370Z,47.17
2022-12-16T16:15:18.347Z,44.47
2022-12-16T16:18:12.605Z,47.57
2022-12-16T16:21:00.908Z,43.63
2022-12-16T16:23:50.238Z,43.43
2022-12-16T16:26:40.748Z,44.20
2022-12-16T16:29:30.450Z,50.77
2022-12-16T16:32:16.768Z,47.90
2022-12-16T16:35:08.580Z,46.20
2022-12-16T16:37:55.743Z,45.73
2022-12-16T16:41:04.923Z,45.80
2022-12-16T16:43:51.590Z,45.67
2022-12-16T16:46:50.705Z,42.97
2022-12-16T16:49:46.973Z,46.50
2022-12-16T16:52:41.514Z,43.30
2022-12-16T16:55:41.121Z,43.53
2022-12-16T16:58:51.123Z,44.37
2022-12-16T17:01:40.897Z,42.67
2022-12-16T17:04:30.371Z,45.20
2022-12-16T17:07:20.415Z,44.53
2022-12-16T17:10:12.670Z,45.43
2022-12-16T17:13:04.851Z,44.83
2022-12-16T17:15:56.785Z,45.40
2022-12-16T17:18:47.760Z,49.23
2022-12-16T17:21:42.479Z,47.47
2022-12-16T17:24:33.407Z,46.97
2022-12-16T17:27:43.606Z,48.13
2022-12-16T17:30:46.547Z,48.63
2022-12-16T17:33:42.493Z,48.33
2022-12-16T17:36:34.769Z,48.03
2022-12-16T17:39:26.763Z,45.83
2022-12-16T17:42:17.397Z,46.23
2022-12-16T17:45:08.256Z,48.23
2022-12-16T17:47:57.052Z,50.30
2022-12-16T17:50:45.076Z,48.50
2022-12-16T17:53:34.047Z,51.93
2022-12-16T17:56:25.389Z,49.10
2022-12-16T17:59:15.349Z,46.90
2022-12-16T18:02:04.527Z,53.63
2022-12-16T18:04:51.852Z,53.13
2022-12-16T18:07:44.938Z,48.80
2022-12-16T18:10:32.988Z,47.10
2022-12-16T18:13:21.064Z,49.17
2022-12-16T18:16:14.843Z,52.80
2022-12-16T18:19:05.017Z,45.47
2022-12-16T18:21:51.940Z,47.73
2022-12-16T18:24:48.151Z,48.63
2022-12-16T18:27:35.086Z,46.17
2022-12-16T18:30:22.719Z,45.57
2022-12-16T18:33:09.405Z,43.83
2022-12-16T18:36:00.726Z,42.43
2022-12-16T18:38:46.912Z,43.30
2022-12-16T18:41:40.093Z,44.63
2022-12-16T18:44:34.327Z,43.80
2022-12-16T18:47:23.613Z,44.57
2022-12-16T18:50:11.006Z,42.83
2022-12-16T18:53:01.393Z,45.80
2022-12-16T18:55:51.911Z,42.63
2022-12-16T18:58:52.232Z,44.00
2022-12-16T19:01:40.902Z,46.43
2022-12-16T19:04:27.697Z,43.03
2022-12-16T19:07:14.880Z,42.43
2022-12-16T19:10:07.402Z,42.97
2022-12-16T19:12:56.164Z,46.40
2022-12-16T19:15:48.500Z,46.10
2022-12-16T19:18:38.358Z,45.97
2022-12-16T19:21:25.722Z,46.40
2022-12-16T19:24:15.109Z,47.93
2022-12-16T19:27:02.709Z,46.57
2022-12-16T19:29:50.822Z,50.17
2022-12-16T19:32:39.867Z,48.73
2022-12-16T19:35:27.502Z,48.67
2022-12-16T19:38:15.090Z,47.80
2022-12-16T19:41:24.518Z,49.80
2022-12-16T19:44:11.263Z,46.97
2022-12-16T19:47:01.528Z,46.53
2022-12-16T19:49:48.056Z,48.27
2022-12-16T19:52:41.781Z,49.83
2022-12-16T19:55:29.904Z,48.57
2022-12-16T19:58:20.230Z,48.40
2022-12-16T20:01:10.867Z,47.87
2022-12-16T20:04:02.650Z,47.30
2022-12-16T20:06:51.549Z,48.40
2022-12-16T20:09:41.779Z,48.57
2022-12-16T20:12:27.877Z,51.77
2022-12-16T20:15:17.459Z,47.83
2022-12-16T20:18:17.751Z,47.53
2022-12-16T20:21:06.752Z,47.87
2022-12-16T20:23:54.687Z,46.63
2022-12-16T20:26:43.882Z,51.23
2022-12-16T20:29:31.907Z,49.17
2022-12-16T20:32:20.341Z,44.00
2022-12-16T20:35:07.694Z,45.33
2022-12-16T20:37:57.316Z,48.83
2022-12-16T20:40:45.057Z,45.97
2022-12-16T20:43:34.190Z,48.47
2022-12-16T20:46:21.690Z,47.53
2022-12-16T20:49:11.203Z,49.07
2022-12-16T20:51:58.060Z,50.50
2022-12-16T20:54:46.354Z,47.67
2022-12-16T20:57:33.676Z,47.67
2022-12-16T21:00:21.956Z,49.90
2022-12-16T21:03:11.329Z,51.47
2022-12-16T21:06:04.660Z,52.87
2022-12-16T21:08:52.731Z,50.23
2022-12-16T21:11:43.108Z,48.00
2022-12-16T21:14:33.964Z,51.17
2022-12-16T21:17:22.164Z,51.20
2022-12-16T21:20:11.074Z,54.60
2022-12-16T21:22:59.562Z,60.57
2022-12-16T21:25:47.001Z,56.50
2022-12-16T21:28:36.840Z,51.67
2022-12-16T21:31:26.512Z,52.50
2022-12-16T21:34:15.200Z,51.80
2022-12-16T21:37:03.772Z,48.83
2022-12-16T21:39:51.841Z,51.10
2022-12-16T21:42:43.662Z,55.33
2022-12-16T21:45:32.463Z,50.70
2022-12-16T21:48:19.654Z,51.60
2022-12-16T21:51:13.988Z,49.97
2022-12-16T21:54:06.445Z,50.83
2022-12-16T21:56:57.494Z,50.90
2022-12-16T21:59:47.015Z,47.43
2022-12-16T22:02:34.690Z,50.53
2022-12-16T22:05:22.665Z,48.50
2022-12-16T22:08:11.656Z,50.87
2022-12-16T22:10:59.163Z,51.67
2022-12-16T22:13:49.687Z,49.13
2022-12-16T22:16:39.738Z,48.17
2022-12-16T22:19:26.912Z,51.33
2022-12-16T22:22:14.844Z,48.40
2022-12-16T22:25:03.651Z,47.63
2022-12-16T22:27:56.151Z,46.40
2022-12-16T22:30:42.723Z,49.10
2022-12-16T22:33:31.838Z,46.83
2022-12-16T22:36:28.463Z,46.40
2022-12-16T22:39:21.518Z,48.67
2022-12-16T22:42:13.795Z,49.63
2022-12-16T22:45:03.200Z,47.23
2022-12-16T22:47:52.727Z,45.97
2022-12-16T22:50:46.181Z,44.47
2022-12-16T22:53:33.667Z,44.63
2022-12-16T22:56:23.982Z,44.30
2022-12-16T22:59:13.063Z,46.07
2022-12-16T23:02:01.752Z,44.10
2022-12-16T23:04:51.741Z,47.47
2022-12-16T23:07:42.049Z,44.50
2022-12-16T23:10:27.999Z,45.50
2022-12-16T23:13:15.141Z,45.20
2022-12-16T23:16:09.714Z,45.23
2022-12-16T23:18:59.197Z,46.37
2022-12-16T23:21:46.640Z,45.47
2022-12-16T23:24:36.147Z,42.03
2022-12-16T23:27:26.698Z,43.00
2022-12-16T23:30:15.082Z,42.33
2022-12-16T23:33:02.667Z,43.70
2022-12-16T23:35:53.972Z,42.20
2022-12-16T23:38:44.760Z,43.67
2022-12-16T23:41:35.274Z,43.43
2022-12-16T23:44:25.719Z,42.97
2022-12-16T23:47:14.623Z,40.43
2022-12-16T23:50:04.738Z,43.37
2022-12-16T23:52:54.770Z,43.70
2022-12-16T23:55:44.715Z,43.10
2022-12-16T23:58:33.812Z,42.90
